Time;durP1;ratioP1;P1;durP2;ratioP2;P2;SDS_P1;SDS_P2;PMS_P1;PMS_P2;Temp;Humidity;BMP_temperature;BMP_pressure;BME280_temperature;BME280_humidity;BME280_pressure;Samples;Min_cycle;Max_cycle;Signal;HPM_P1;HPM_P2
2022/10/26 00:01:18;;;;;;;25.50;13.30;;;;;;;12.80;85.60;100208.24;99721;1289;97285;-76
2022/10/26 00:03:46;;;;;;;20.00;13.00;;;;;;;12.80;85.67;100207.71;99822;1287;138917;-76
2022/10/26 00:06:17;;;;;;;19.60;12.40;;;;;;;12.81;85.70;100210.13;99878;1290;96470;-77
2022/10/26 00:08:44;;;;;;;24.50;13.60;;;;;;;12.82;85.76;100214.27;99921;1288;138416;-77
2022/10/26 00:11:12;;;;;;;19.30;12.40;;;;;;;12.82;85.78;100211.48;99845;1287;108238;-76
2022/10/26 00:13:41;;;;;;;17.60;12.50;;;;;;;12.83;86.02;100211.61;100009;1290;96566;-76
2022/10/26 00:16:12;;;;;;;18.30;13.20;;;;;;;12.86;86.05;100212.35;99821;1289;138674;-77
2022/10/26 00:18:40;;;;;;;20.40;13.30;;;;;;;12.88;86.02;100215.73;100044;1292;96590;-75
2022/10/26 00:21:08;;;;;;;19.00;13.20;;;;;;;12.89;86.08;100217.28;99903;1289;138738;-76
2022/10/26 00:23:35;;;;;;;19.50;12.90;;;;;;;12.90;86.16;100221.92;99951;1289;107413;-75
2022/10/26 00:26:03;;;;;;;17.50;12.50;;;;;;;12.91;86.17;100223.09;99969;1298;97891;-74
2022/10/26 00:28:30;;;;;;;19.00;12.50;;;;;;;12.93;86.27;100218.00;99894;1290;138397;-74
2022/10/26 00:31:02;;;;;;;18.80;13.20;;;;;;;12.96;86.33;100219.25;99918;1289;99363;-75
2022/10/26 00:33:30;;;;;;;19.60;12.80;;;;;;;13.01;86.29;100216.96;99884;1289;138444;-75
2022/10/26 00:35:57;;;;;;;18.10;12.60;;;;;;;13.05;86.32;100222.88;99736;1290;107267;-75
2022/10/26 00:38:24;;;;;;;16.80;12.60;;;;;;;13.08;86.27;100221.17;99815;1291;97952;-75
2022/10/26 00:40:52;;;;;;;20.50;13.60;;;;;;;13.11;86.00;100221.94;99699;1283;137870;-75
2022/10/26 00:43:36;;;;;;;18.80;13.20;;;;;;;13.12;86.11;100221.17;99816;1281;97889;-75
2022/10/26 00:46:06;;;;;;;20.50;13.60;;;;;;;13.13;85.97;100221.48;99758;1284;138256;-76
2022/10/26 00:48:38;;;;;;;16.40;13.70;;;;;;;13.14;85.96;100223.18;99878;1290;107115;-75
2022/10/26 00:51:09;;;;;;;20.50;14.00;;;;;;;13.15;85.90;100220.02;99667;1298;140340;-76
2022/10/26 00:53:37;;;;;;;20.30;14.40;;;;;;;13.14;85.83;100219.54;101277;1299;107588;-76
2022/10/26 00:56:05;;;;;;;17.50;13.80;;;;;;;13.11;85.74;100218.07;101289;1292;95738;-76
2022/10/26 00:58:33;;;;;;;19.10;14.60;;;;;;;13.09;85.55;100219.20;101205;1292;140327;-76
2022/10/26 01:01:00;;;;;;;20.20;13.50;;;;;;;13.08;85.66;100225.37;101218;1293;107529;-76
2022/10/26 01:03:28;;;;;;;20.00;14.00;;;;;;;13.09;85.77;100219.57;101134;1299;138962;-76
2022/10/26 01:05:57;;;;;;;20.60;14.00;;;;;;;13.10;85.66;100220.90;101225;1285;108883;-75
2022/10/26 01:08:26;;;;;;;17.70;13.60;;;;;;;13.10;85.61;100221.27;101264;1299;96345;-76
2022/10/26 01:10:54;;;;;;;19.20;14.50;;;;;;;13.10;85.67;100226.15;101146;1290;139206;-76
2022/10/26 01:13:22;;;;;;;18.30;13.10;;;;;;;13.09;85.60;100226.20;101227;1291;107809;-76
2022/10/26 01:15:58;;;;;;;19.80;13.20;;;;;;;13.09;85.61;100224.45;101127;1285;139452;-75
2022/10/26 01:18:35;;;;;;;16.60;13.70;;;;;;;13.09;85.60;100224.61;101243;1298;107361;-75
2022/10/26 01:21:36;;;;;;;19.20;12.50;;;;;;;13.09;85.69;100223.20;101183;1282;139378;-77
2022/10/26 01:24:21;;;;;;;21.50;13.90;;;;;;;13.08;85.64;100228.16;100786;1296;111689;-75
2022/10/26 01:27:00;;;;;;;22.20;13.90;;;;;;;13.05;85.66;100226.88;99657;1291;139864;-76
2022/10/26 01:30:02;;;;;;;20.70;14.10;;;;;;;13.04;85.58;100229.55;99886;1285;97832;-76
2022/10/26 01:32:34;;;;;;;18.10;13.90;;;;;;;13.03;85.70;100230.10;99683;1290;109718;-75
2022/10/26 01:35:09;;;;;;;18.90;13.40;;;;;;;13.01;85.86;100229.31;99860;1282;97700;-75
2022/10/26 01:37:42;;;;;;;22.30;14.60;;;;;;;13.00;85.83;100232.31;99941;1284;112223;-75
2022/10/26 01:40:16;;;;;;;19.70;14.20;;;;;;;13.00;85.83;100234.27;99844;1290;138768;-75
2022/10/26 01:42:49;;;;;;;20.80;14.10;;;;;;;12.98;85.72;100232.07;99868;1290;97850;-75
2022/10/26 01:45:17;;;;;;;23.40;14.10;;;;;;;12.95;85.78;100234.30;99719;1290;138916;-75
2022/10/26 01:47:46;;;;;;;17.60;13.00;;;;;;;12.92;85.72;100235.83;99815;1282;97948;-75
2022/10/26 01:50:15;;;;;;;19.20;13.50;;;;;;;12.88;85.86;100235.10;99868;1288;110801;-75
2022/10/26 01:52:42;;;;;;;20.30;14.00;;;;;;;12.86;85.99;100231.89;99762;1291;139867;-76
2022/10/26 01:55:44;;;;;;;20.60;14.20;;;;;;;12.83;86.10;100233.08;99858;1289;97849;-75
2022/10/26 01:58:23;;;;;;;20.30;15.10;;;;;;;12.80;86.19;100229.88;99707;1283;140440;-75
2022/10/26 02:00:58;;;;;;;23.70;15.10;;;;;;;12.77;86.23;100229.13;99761;1284;97915;-75
2022/10/26 02:03:31;;;;;;;23.30;15.60;;;;;;;12.74;86.33;100232.21;99751;1285;138441;-75
2022/10/26 02:06:11;;;;;;;23.70;16.80;;;;;;;12.68;86.36;100231.02;99900;1281;106630;-75
2022/10/26 02:09:07;;;;;;;21.40;16.60;;;;;;;12.66;86.61;100234.99;99857;1288;138693;-76
2022/10/26 02:11:45;;;;;;;22.80;16.90;;;;;;;12.61;86.58;100240.59;100014;1289;108020;-75
2022/10/26 02:14:19;;;;;;;21.20;16.70;;;;;;;12.58;86.72;100241.95;99901;1295;97860;-74
2022/10/26 02:16:55;;;;;;;21.80;17.30;;;;;;;12.56;86.83;100246.19;99712;1291;138581;-75
2022/10/26 02:19:29;;;;;;;23.60;18.20;;;;;;;12.54;87.06;100245.41;101323;1298;105944;-76
2022/10/26 02:22:03;;;;;;;28.50;17.80;;;;;;;12.53;86.96;100249.63;100906;1292;140188;-75
2022/10/26 02:24:32;;;;;;;25.50;17.60;;;;;;;12.53;87.03;100250.86;99723;1291;107669;-74
2022/10/26 02:27:01;;;;;;;25.20;16.80;;;;;;;12.52;87.07;100250.04;99613;1292;139298;-74
2022/10/26 02:29:31;;;;;;;28.10;17.70;;;;;;;12.50;86.97;100250.95;99981;1291;111168;-75
2022/10/26 02:31:59;;;;;;;23.80;16.80;;;;;;;12.47;86.93;100253.70;99809;1290;107996;-75
2022/10/26 02:34:30;;;;;;;25.40;17.30;;;;;;;12.45;87.12;100252.92;99641;1289;138623;-74
2022/10/26 02:37:01;;;;;;;23.50;17.40;;;;;;;12.44;87.05;100252.47;99882;1299;107408;-75
2022/10/26 02:39:32;;;;;;;24.20;17.50;;;;;;;12.42;87.08;100252.35;99715;1283;138684;-74
2022/10/26 02:42:01;;;;;;;26.80;17.70;;;;;;;12.40;87.12;100255.92;101355;1291;110274;-75
2022/10/26 02:44:30;;;;;;;25.40;18.00;;;;;;;12.38;87.10;100253.01;100287;1290;108808;-75
2022/10/26 02:46:58;;;;;;;27.60;18.70;;;;;;;12.37;87.13;100256.02;99696;1292;138592;-75
2022/10/26 02:49:26;;;;;;;22.50;17.00;;;;;;;12.36;87.33;100257.80;99806;1283;107272;-75
2022/10/26 02:51:59;;;;;;;26.40;17.80;;;;;;;12.35;87.24;100258.16;99751;1290;138657;-75
2022/10/26 02:54:33;;;;;;;25.60;18.20;;;;;;;12.32;87.13;100259.88;99900;1290;112208;-74
2022/10/26 02:57:04;;;;;;;25.30;17.90;;;;;;;12.29;87.14;100265.05;99721;1284;139193;-75
2022/10/26 02:59:36;;;;;;;28.60;18.20;;;;;;;12.28;87.21;100264.77;99962;1274;97851;-74
2022/10/26 03:02:06;;;;;;;29.10;17.80;;;;;;;12.29;87.38;100269.26;99917;1290;107661;-75
2022/10/26 03:04:34;;;;;;;26.40;18.30;;;;;;;12.28;87.25;100269.29;99869;1289;138566;-75
2022/10/26 03:07:02;;;;;;;24.60;17.90;;;;;;;12.27;87.33;100274.56;99981;1289;110208;-75
2022/10/26 03:09:29;;;;;;;25.80;18.70;;;;;;;12.26;87.33;100274.60;99893;1289;140548;-75
2022/10/26 03:11:56;;;;;;;26.70;18.90;;;;;;;12.25;87.47;100274.98;99991;1289;97940;-74
2022/10/26 03:14:24;;;;;;;26.80;19.30;;;;;;;12.25;87.60;100276.05;99912;1288;107471;-75
2022/10/26 03:16:51;;;;;;;29.60;18.70;;;;;;;12.26;87.51;100279.48;99898;1282;141356;-75
2022/10/26 03:19:19;;;;;;;28.20;18.30;;;;;;;12.27;87.52;100281.02;100020;1289;111304;-75
2022/10/26 03:21:46;;;;;;;25.20;18.10;;;;;;;12.26;87.41;100282.80;99916;1291;138727;-74
2022/10/26 03:24:13;;;;;;;26.60;18.60;;;;;;;12.26;87.49;100289.92;100115;1289;98403;-74
2022/10/26 03:26:40;;;;;;;29.20;19.40;;;;;;;12.27;87.41;100294.27;99916;1287;138728;-75
2022/10/26 03:29:08;;;;;;;28.90;19.40;;;;;;;12.25;87.20;100291.74;100016;1289;97820;-74
2022/10/26 03:31:35;;;;;;;28.80;19.70;;;;;;;12.22;87.26;100292.35;100025;1289;111496;-74
2022/10/26 03:34:02;;;;;;;28.60;19.80;;;;;;;12.21;87.36;100290.83;99855;1289;138880;-74
2022/10/26 03:36:30;;;;;;;29.30;19.10;;;;;;;12.20;87.29;100292.77;100122;1281;97903;-74
2022/10/26 03:38:57;;;;;;;28.40;19.10;;;;;;;12.18;87.44;100300.85;99946;1281;138931;-74
2022/10/26 03:41:24;;;;;;;28.60;19.80;;;;;;;12.17;87.46;100298.31;100022;1291;98110;-74
2022/10/26 03:43:51;;;;;;;32.40;20.30;;;;;;;12.15;87.37;100300.12;99964;1290;111059;-74
2022/10/26 03:46:18;;;;;;;26.80;20.10;;;;;;;12.14;87.34;100303.30;99664;1289;138692;-74
2022/10/26 03:48:45;;;;;;;28.60;19.80;;;;;;;12.13;87.24;100309.45;99752;1298;97795;-74
2022/10/26 03:51:12;;;;;;;28.50;19.40;;;;;;;12.12;87.46;100311.90;99751;1297;138856;-74
2022/10/26 03:53:39;;;;;;;27.90;19.70;;;;;;;12.12;87.41;100313.46;99850;1283;97813;-73
2022/10/26 03:56:08;;;;;;;32.00;20.20;;;;;;;12.11;87.36;100319.25;99804;1283;110469;-73
2022/10/26 03:58:35;;;;;;;31.90;20.50;;;;;;;12.11;87.51;100318.38;99647;1291;138599;-74
2022/10/26 04:01:02;;;;;;;31.30;20.60;;;;;;;12.11;87.37;100312.12;99801;1283;98420;-73
2022/10/26 04:03:29;;;;;;;27.00;20.70;;;;;;;12.11;87.34;100313.17;99653;1283;138446;-74
2022/10/26 04:05:57;;;;;;;28.30;20.40;;;;;;;12.10;87.37;100309.20;99886;1296;97814;-74
2022/10/26 04:08:24;;;;;;;32.00;22.00;;;;;;;12.09;87.26;100310.95;99904;1290;111498;-74
2022/10/26 04:10:51;;;;;;;27.80;20.00;;;;;;;12.09;87.25;100309.23;99749;1287;138416;-74
2022/10/26 04:13:18;;;;;;;29.10;20.50;;;;;;;12.09;87.20;100307.31;99853;1276;99269;-75
2022/10/26 04:15:45;;;;;;;33.00;21.10;;;;;;;12.08;87.35;100305.80;99728;1290;139509;-74
2022/10/26 04:18:12;;;;;;;27.10;19.70;;;;;;;12.07;87.13;100312.44;99831;1291;97971;-73
2022/10/26 04:20:41;;;;;;;30.00;21.10;;;;;;;12.07;87.17;100319.41;99766;1287;138804;-74
2022/10/26 04:23:11;;;;;;;31.80;21.40;;;;;;;12.05;87.07;100313.55;99796;1292;105686;-73
2022/10/26 04:25:38;;;;;;;27.40;19.80;;;;;;;12.05;87.12;100319.33;99875;1283;97828;-74
2022/10/26 04:28:07;;;;;;;31.80;20.50;;;;;;;12.03;87.05;100319.73;99769;1289;138884;-73
2022/10/26 04:30:36;;;;;;;33.40;20.10;;;;;;;12.01;87.08;100320.14;99979;1296;97818;-73
2022/10/26 04:33:04;;;;;;;31.50;21.30;;;;;;;12.01;86.99;100325.20;99821;1291;139610;-74
2022/10/26 04:35:31;;;;;;;28.80;20.90;;;;;;;11.98;86.93;100323.02;99978;1289;108175;-73
2022/10/26 04:38:01;;;;;;;28.30;20.60;;;;;;;11.96;87.05;100325.21;100035;1289;97924;-73
2022/10/26 04:40:28;;;;;;;30.40;20.70;;;;;;;11.94;86.96;100320.94;99902;1289;139207;-73
2022/10/26 04:42:57;;;;;;;28.70;20.50;;;;;;;11.94;87.03;100326.00;99987;1289;97827;-73
2022/10/26 04:45:24;;;;;;;27.10;20.00;;;;;;;11.93;87.18;100327.41;99897;1288;139161;-73
2022/10/26 04:48:00;;;;;;;33.50;21.30;;;;;;;11.94;87.27;100330.69;100007;1281;107885;-74
2022/10/26 04:50:27;;;;;;;29.10;19.60;;;;;;;11.94;87.17;100326.84;101531;1295;95961;-74
2022/10/26 04:52:55;;;;;;;29.50;19.90;;;;;;;11.97;87.24;100329.17;101178;1297;138958;-74
2022/10/26 04:55:22;;;;;;;31.10;19.40;;;;;;;12.01;87.17;100331.48;101377;1292;95840;-74
2022/10/26 04:57:49;;;;;;;29.00;19.90;;;;;;;12.04;87.23;100336.06;101320;1298;138964;-73
2022/10/26 05:00:17;;;;;;;30.10;20.80;;;;;;;12.09;87.20;100338.70;101350;1299;107209;-74
2022/10/26 05:02:44;;;;;;;27.80;19.60;;;;;;;12.13;87.06;100343.23;101206;1285;138900;-74
2022/10/26 05:05:11;;;;;;;33.80;20.00;;;;;;;12.16;87.00;100345.39;101290;1298;106956;-73
2022/10/26 05:07:41;;;;;;;24.90;19.10;;;;;;;12.18;86.93;100345.13;101347;1293;96240;-73
2022/10/26 05:10:09;;;;;;;32.20;20.10;;;;;;;12.20;86.90;100346.83;101279;1292;139042;-74
2022/10/26 05:12:37;;;;;;;29.20;19.70;;;;;;;12.24;86.81;100352.08;101074;1293;108187;-75
2022/10/26 05:15:07;;;;;;;31.70;20.10;;;;;;;12.25;86.41;100354.64;99779;1290;138898;-76
2022/10/26 05:17:34;;;;;;;26.30;20.10;;;;;;;12.25;86.16;100355.52;99918;1291;107389;-74
2022/10/26 05:20:04;;;;;;;30.10;20.00;;;;;;;12.25;85.96;100363.02;99850;1293;97804;-73
2022/10/26 05:22:32;;;;;;;30.00;20.00;;;;;;;12.25;86.03;100362.17;99677;1283;139984;-73
2022/10/26 05:24:59;;;;;;;30.20;19.80;;;;;;;12.24;86.10;100365.16;99754;1292;108162;-74
2022/10/26 05:27:27;;;;;;;31.30;20.80;;;;;;;12.25;86.12;100364.58;99757;1291;139736;-71
2022/10/26 05:29:54;;;;;;;29.10;19.50;;;;;;;12.26;86.10;100372.77;99877;1288;107047;-76
2022/10/26 05:32:21;;;;;;;29.40;19.60;;;;;;;12.25;85.92;100371.40;99881;1292;97799;-75
2022/10/26 05:34:48;;;;;;;34.40;19.70;;;;;;;12.26;86.23;100376.41;99716;1291;138316;-74
2022/10/26 05:37:15;;;;;;;27.50;18.30;;;;;;;12.28;86.06;100380.35;99817;1292;108396;-75
2022/10/26 05:39:43;;;;;;;26.00;17.20;;;;;;;12.28;86.01;100384.34;99814;1283;138651;-74
2022/10/26 05:42:10;;;;;;;27.80;18.50;;;;;;;12.29;85.83;100383.80;99876;1290;107495;-73
2022/10/26 05:44:37;;;;;;;31.40;20.00;;;;;;;12.27;85.84;100387.02;99730;1289;138935;-77
2022/10/26 05:47:04;;;;;;;28.40;18.70;;;;;;;12.26;85.95;100387.04;99808;1293;111096;-75
2022/10/26 05:49:32;;;;;;;29.00;19.10;;;;;;;12.27;86.07;100391.35;99828;1290;107911;-73
2022/10/26 05:51:59;;;;;;;30.10;18.50;;;;;;;12.30;85.99;100391.77;99751;1283;141077;-74
2022/10/26 05:54:26;;;;;;;30.50;18.10;;;;;;;12.30;85.92;100394.38;99774;1283;108613;-79
2022/10/26 05:56:54;;;;;;;27.40;18.30;;;;;;;12.29;85.67;100392.68;99688;1292;138806;-75
2022/10/26 05:59:23;;;;;;;25.60;17.60;;;;;;;12.30;85.76;100395.80;101352;1292;110166;-75
2022/10/26 06:02:03;;;;;;;26.30;17.30;;;;;;;12.30;85.71;100397.69;101300;1292;107995;-76
2022/10/26 06:04:38;;;;;;;23.90;17.10;;;;;;;12.30;85.60;100398.73;100167;1297;140048;-75
2022/10/26 06:07:09;;;;;;;29.00;17.10;;;;;;;12.32;85.81;100401.98;101287;1295;107412;-76
2022/10/26 06:09:37;;;;;;;27.40;16.70;;;;;;;12.36;85.85;100403.92;99745;1284;138747;-76
2022/10/26 06:12:06;;;;;;;28.10;16.60;;;;;;;12.38;85.43;100408.36;99849;1283;111112;-77
2022/10/26 06:14:34;;;;;;;25.80;17.10;;;;;;;12.39;85.40;100413.41;99978;1299;107481;-78
2022/10/26 06:17:18;;;;;;;25.30;16.80;;;;;;;12.41;85.32;100415.45;100100;1298;97823;-76
2022/10/26 06:20:03;;;;;;;22.40;16.70;;;;;;;12.41;85.05;100414.75;100131;1281;107489;-79
2022/10/26 06:22:47;;;;;;;24.20;16.00;;;;;;;12.39;85.06;100413.93;99901;1289;140312;-76
2022/10/26 06:25:27;;;;;;;26.90;17.40;;;;;;;12.40;85.14;100412.88;99830;1288;111216;-77
2022/10/26 06:28:05;;;;;;;23.20;16.10;;;;;;;12.41;84.99;100414.05;99944;1289;138719;-77
2022/10/26 06:30:32;;;;;;;24.40;15.30;;;;;;;12.37;84.67;100417.81;99828;1291;97947;-77
2022/10/26 06:33:00;;;;;;;26.70;16.10;;;;;;;12.38;84.63;100423.89;99913;1291;138618;-79
2022/10/26 06:35:46;;;;;;;24.50;15.50;;;;;;;12.37;84.44;100418.37;99888;1295;97848;-76
2022/10/26 06:38:18;;;;;;;24.10;14.60;;;;;;;12.40;84.50;100424.37;99934;1285;110724;-76
2022/10/26 06:40:48;;;;;;;25.50;15.20;;;;;;;12.43;84.32;100427.05;99947;1283;138706;-76
2022/10/26 06:43:22;;;;;;;23.60;15.80;;;;;;;12.45;84.24;100425.58;100100;1289;97925;-76
2022/10/26 06:45:54;;;;;;;22.90;14.50;;;;;;;12.46;83.97;100432.50;99947;1292;138575;-75
2022/10/26 06:48:27;;;;;;;23.60;15.50;;;;;;;12.46;83.64;100434.95;100074;1281;97828;-76
2022/10/26 06:50:55;;;;;;;25.90;16.20;;;;;;;12.46;83.77;100437.39;99850;1288;138843;-75
2022/10/26 06:53:27;;;;;;;23.20;14.90;;;;;;;12.48;83.91;100440.27;101440;1289;110494;-76
2022/10/26 06:55:57;;;;;;;25.50;16.30;;;;;;;12.54;83.79;100437.43;100928;1281;98296;-75
2022/10/26 06:58:27;;;;;;;28.40;17.60;;;;;;;12.56;83.63;100436.16;99845;1282;140290;-75
2022/10/26 07:00:56;;;;;;;28.80;17.90;;;;;;;12.58;83.68;100435.55;99962;1289;97857;-76
2022/10/26 07:03:23;;;;;;;30.10;17.50;;;;;;;12.59;83.57;100438.48;99701;1289;138450;-76
2022/10/26 07:05:51;;;;;;;26.20;18.80;;;;;;;12.63;83.68;100437.63;99882;1281;108466;-75
2022/10/26 07:08:18;;;;;;;31.30;18.30;;;;;;;12.68;83.31;100437.95;100022;1281;98146;-75
2022/10/26 07:10:46;;;;;;;28.00;18.80;;;;;;;12.69;83.08;100438.43;99835;1298;138673;-74
2022/10/26 07:13:13;;;;;;;28.40;17.90;;;;;;;12.69;82.94;100444.20;99970;1281;97690;-75
2022/10/26 07:15:41;;;;;;;28.30;17.80;;;;;;;12.67;82.97;100445.29;99861;1289;138320;-76
2022/10/26 07:18:09;;;;;;;27.40;18.40;;;;;;;12.65;82.93;100443.99;99914;1289;108291;-75
2022/10/26 07:20:40;;;;;;;29.60;17.50;;;;;;;12.63;82.86;100447.05;100043;1281;98302;-76
2022/10/26 07:23:09;;;;;;;27.80;17.90;;;;;;;12.62;82.99;100456.15;101308;1298;107838;-76
2022/10/26 07:25:39;;;;;;;23.20;15.80;;;;;;;12.59;82.85;100449.83;101434;1284;96511;-77
2022/10/26 07:28:08;;;;;;;28.30;17.00;;;;;;;12.58;82.64;100455.63;101345;1297;139016;-78
2022/10/26 07:30:37;;;;;;;26.00;17.70;;;;;;;12.57;82.65;100458.09;101448;1298;107383;-75
2022/10/26 07:33:07;;;;;;;27.10;17.00;;;;;;;12.55;82.42;100457.30;100544;1296;138887;-74
2022/10/26 07:35:34;;;;;;;27.90;17.80;;;;;;;12.56;82.41;100459.87;100027;1282;109015;-76
2022/10/26 07:38:03;;;;;;;28.70;17.90;;;;;;;12.57;82.17;100461.23;99936;1288;97833;-75
2022/10/26 07:40:30;;;;;;;29.00;17.20;;;;;;;12.55;82.19;100460.58;99827;1290;138428;-75
2022/10/26 07:43:00;;;;;;;23.50;17.20;;;;;;;12.55;82.19;100461.61;99949;1283;107883;-75
2022/10/26 07:45:28;;;;;;;27.30;18.00;;;;;;;12.56;82.08;100464.91;99847;1283;139429;-74
2022/10/26 07:47:56;;;;;;;26.80;16.40;;;;;;;12.53;82.07;100466.05;100068;1297;108682;-75
2022/10/26 07:50:23;;;;;;;23.00;15.60;;;;;;;12.53;82.01;100467.98;100038;1287;97683;-74
2022/10/26 07:52:50;;;;;;;26.10;15.80;;;;;;;12.53;82.08;100463.45;99747;1290;139262;-76
2022/10/26 07:55:19;;;;;;;22.90;15.30;;;;;;;12.54;81.95;100466.21;100534;1294;107603;-78
2022/10/26 07:57:46;;;;;;;23.00;14.30;;;;;;;12.53;81.98;100469.20;99802;1293;138863;-77
2022/10/26 08:00:20;;;;;;;22.60;14.10;;;;;;;12.50;81.60;100476.30;99881;1291;108802;-78
2022/10/26 08:02:47;;;;;;;21.70;13.70;;;;;;;12.46;81.55;100480.64;99746;1290;138741;-76
2022/10/26 08:05:14;;;;;;;20.80;13.90;;;;;;;12.40;81.40;100485.39;99913;1290;112133;-75
2022/10/26 08:07:46;;;;;;;20.60;12.90;;;;;;;12.38;81.55;100488.92;99855;1293;107958;-76
2022/10/26 08:10:14;;;;;;;19.50;12.90;;;;;;;12.37;81.66;100489.30;101110;1298;139329;-77
2022/10/26 08:12:42;;;;;;;23.20;14.30;;;;;;;12.39;81.78;100493.45;99914;1296;106809;-75
2022/10/26 08:15:10;;;;;;;20.10;13.20;;;;;;;12.40;81.74;100492.21;99724;1298;138179;-76
2022/10/26 08:17:37;;;;;;;19.70;13.40;;;;;;;12.40;81.52;100493.08;99900;1291;111234;-76
2022/10/26 08:20:04;;;;;;;21.50;14.70;;;;;;;12.38;81.64;100492.94;99917;1292;107453;-76
2022/10/26 08:22:32;;;;;;;21.40;13.60;;;;;;;12.37;81.83;100498.89;99745;1290;137920;-76
2022/10/26 08:24:59;;;;;;;19.40;13.20;;;;;;;12.36;81.72;100497.02;99876;1290;107487;-76
2022/10/26 08:27:26;;;;;;;20.00;13.20;;;;;;;12.33;81.60;100496.97;99735;1289;140990;-76
2022/10/26 08:29:53;;;;;;;17.40;12.00;;;;;;;12.29;81.56;100498.50;99873;1291;111287;-76
2022/10/26 08:32:20;;;;;;;21.40;13.40;;;;;;;12.27;81.72;100497.02;99772;1300;108826;-76
2022/10/26 08:34:47;;;;;;;22.60;13.80;;;;;;;12.25;81.80;100497.61;99808;1290;140108;-75
2022/10/26 08:37:15;;;;;;;18.40;12.80;;;;;;;12.25;81.94;100500.91;99822;1289;106708;-76
2022/10/26 08:39:42;;;;;;;19.40;13.60;;;;;;;12.26;81.91;100498.11;99808;1296;139916;-75
2022/10/26 08:42:17;;;;;;;20.80;13.90;;;;;;;12.25;81.89;100500.77;99941;1290;111824;-75
2022/10/26 08:44:48;;;;;;;20.90;13.40;;;;;;;12.22;82.00;100504.88;99724;1291;138242;-76
2022/10/26 08:47:19;;;;;;;21.70;15.20;;;;;;;12.21;82.26;100506.11;101395;1290;96026;-76
2022/10/26 08:49:54;;;;;;;21.30;14.70;;;;;;;12.20;82.32;100508.08;101369;1290;108542;-75
2022/10/26 08:52:27;;;;;;;21.70;13.60;;;;;;;12.15;82.11;100517.30;101277;1299;138977;-76
2022/10/26 08:54:57;;;;;;;19.90;13.20;;;;;;;12.13;82.59;100514.75;100537;1292;109753;-76
2022/10/26 08:57:28;;;;;;;18.10;13.00;;;;;;;12.14;82.60;100520.14;99822;1283;140371;-75
2022/10/26 09:00:00;;;;;;;19.60;13.00;;;;;;;12.14;82.51;100520.29;99937;1289;97854;-76
2022/10/26 09:02:29;;;;;;;21.70;13.20;;;;;;;12.16;82.48;100523.20;99863;1293;107448;-76
2022/10/26 09:04:58;;;;;;;21.40;13.90;;;;;;;12.17;82.53;100523.50;99826;1293;139988;-75
2022/10/26 09:07:40;;;;;;;22.20;13.90;;;;;;;12.20;82.48;100524.61;99884;1287;111197;-77
2022/10/26 09:10:22;;;;;;;21.80;15.50;;;;;;;12.21;82.54;100522.67;99725;1290;138123;-76
2022/10/26 09:12:54;;;;;;;21.70;15.30;;;;;;;12.23;82.79;100522.79;99914;1291;98641;-73
2022/10/26 09:15:33;;;;;;;22.10;14.00;;;;;;;12.21;82.68;100523.38;99792;1283;137716;-76
2022/10/26 09:18:14;;;;;;;20.90;14.90;;;;;;;12.19;82.74;100528.12;99902;1293;97825;-78
2022/10/26 09:20:57;;;;;;;22.70;15.00;;;;;;;12.19;82.74;100532.83;99763;1292;138775;-73
2022/10/26 09:23:45;;;;;;;20.10;13.90;;;;;;;12.21;82.93;100535.06;99797;1300;109883;-71
2022/10/26 09:26:15;;;;;;;21.60;13.70;;;;;;;12.23;83.06;100538.64;99915;1291;97834;-74
2022/10/26 09:28:45;;;;;;;19.70;13.20;;;;;;;12.27;83.01;100539.57;99807;1300;140028;-74
2022/10/26 09:31:16;;;;;;;21.60;13.40;;;;;;;12.30;82.92;100544.85;99891;1293;97795;-75
2022/10/26 09:33:44;;;;;;;19.10;13.70;;;;;;;12.33;82.91;100547.35;99767;1289;137767;-78
2022/10/26 09:36:15;;;;;;;20.70;14.50;;;;;;;12.36;82.84;100551.60;99953;1290;106835;-77
2022/10/26 09:38:47;;;;;;;23.30;14.50;;;;;;;12.38;82.71;100559.55;99806;1289;140124;-75
2022/10/26 09:41:22;;;;;;;19.50;13.00;;;;;;;12.39;82.74;100560.07;99861;1284;106936;-74
2022/10/26 09:43:56;;;;;;;;;;;;;;;12.41;82.53;100565.92;99902;1296;97735;-74
2022/10/26 09:46:29;;;;;;;21.10;13.20;;;;;;;12.43;82.59;100562.55;99905;1292;124712;-76
2022/10/26 09:48:59;;;;;;;19.30;13.80;;;;;;;12.49;82.63;100561.95;100068;1281;107920;-75
2022/10/26 09:51:27;;;;;;;21.10;14.00;;;;;;;12.53;82.41;100564.44;100017;1294;139196;-75
2022/10/26 09:53:56;;;;;;;20.90;14.10;;;;;;;12.56;82.32;100561.36;100102;1289;107836;-75
2022/10/26 09:56:26;;;;;;;20.00;13.70;;;;;;;12.61;82.35;100561.01;100113;1294;97803;-76
2022/10/26 09:59:00;;;;;;;20.70;13.40;;;;;;;12.67;82.33;100560.63;100004;1289;139472;-75
2022/10/26 10:01:36;;;;;;;21.90;15.00;;;;;;;12.70;82.17;100570.48;100014;1288;107577;-74
2022/10/26 10:04:20;;;;;;;20.40;13.80;;;;;;;12.73;82.29;100569.85;99914;1283;138110;-75
2022/10/26 10:06:48;;;;;;;18.50;13.80;;;;;;;12.80;82.19;100573.81;100016;1288;108167;-74
2022/10/26 10:09:17;;;;;;;19.50;13.00;;;;;;;12.82;81.93;100572.15;99828;1296;140392;-74
2022/10/26 10:11:53;;;;;;;23.10;14.20;;;;;;;12.86;82.13;100568.83;100076;1290;111991;-74
2022/10/26 10:14:21;;;;;;;23.80;13.80;;;;;;;12.92;81.97;100568.80;99978;1289;106327;-76
2022/10/26 10:16:56;;;;;;;19.20;12.90;;;;;;;12.96;81.95;100571.46;99865;1287;140212;-74
2022/10/26 10:19:27;;;;;;;17.80;12.50;;;;;;;13.01;81.83;100568.30;100011;1287;108836;-74
2022/10/26 10:21:57;;;;;;;19.40;13.40;;;;;;;13.07;81.77;100562.66;101457;1291;138864;-75
2022/10/26 10:24:27;;;;;;;20.90;13.80;;;;;;;13.11;81.53;100556.41;101602;1292;110719;-74
2022/10/26 10:27:02;;;;;;;24.80;14.60;;;;;;;13.13;81.42;100552.47;101175;1287;138240;-74
2022/10/26 10:29:31;;;;;;;20.90;13.90;;;;;;;13.16;81.29;100554.65;100035;1291;97825;-75
2022/10/26 10:32:00;;;;;;;21.40;15.10;;;;;;;13.18;81.32;100557.71;99987;1297;106003;-75
2022/10/26 10:34:27;;;;;;;26.10;15.50;;;;;;;13.21;81.37;100557.96;99940;1288;137869;-75
2022/10/26 10:36:55;;;;;;;26.60;15.70;;;;;;;13.24;81.35;100555.57;99993;1281;111129;-75
2022/10/26 10:39:40;;;;;;;18.50;14.60;;;;;;;13.28;81.23;100556.14;99855;1290;138726;-74
2022/10/26 10:42:17;;;;;;;21.60;15.40;;;;;;;13.29;81.07;100557.13;99965;1289;97833;-74
2022/10/26 10:44:46;;;;;;;21.80;15.40;;;;;;;13.33;81.14;100560.34;99918;1288;138691;-75
2022/10/26 10:47:22;;;;;;;24.10;15.90;;;;;;;13.38;81.43;100557.48;101538;1284;95832;-75
2022/10/26 10:49:56;;;;;;;23.90;17.40;;;;;;;13.46;81.37;100553.16;101501;1291;111148;-75
2022/10/26 10:52:32;;;;;;;26.20;18.30;;;;;;;13.53;81.09;100553.25;101421;1290;141147;-74
2022/10/26 10:55:20;;;;;;;30.30;18.90;;;;;;;13.56;80.80;100553.45;101524;1294;96087;-74
2022/10/26 10:58:00;;;;;;;28.80;19.20;;;;;;;13.59;80.48;100553.89;100574;1285;137984;-75
2022/10/26 11:00:27;;;;;;;30.80;19.70;;;;;;;13.59;80.29;100555.61;99969;1289;98562;-75
2022/10/26 11:03:08;;;;;;;26.80;18.00;;;;;;;13.64;80.37;100555.94;99893;1298;139072;-74
2022/10/26 11:05:49;;;;;;;29.70;17.70;;;;;;;13.66;80.24;100556.40;99972;1288;109505;-74
2022/10/26 11:08:26;;;;;;;28.80;19.20;;;;;;;13.71;80.26;100562.83;99939;1291;97867;-74
2022/10/26 11:10:59;;;;;;;27.30;17.90;;;;;;;13.77;80.08;100560.85;99936;1287;138209;-74
2022/10/26 11:13:31;;;;;;;28.70;17.70;;;;;;;13.78;79.77;100560.10;100041;1287;98062;-73
2022/10/26 11:16:03;;;;;;;25.50;17.40;;;;;;;13.77;79.68;100563.10;100948;1288;139034;-74
2022/10/26 11:18:36;;;;;;;23.30;15.00;;;;;;;13.76;79.55;100565.59;99982;1292;108915;-75